• Join FlightAware (Why Join?)
  • Login
  • US Flag 
Gobble Gobble! 
05:58AM EST


 

Airport Tracker/Info


-or-


 

Live Flight TrackerFlight Track Log ✈ SWA796 ✈ 04-May-2013 ✈ KOKC - KSTL

Flight Track Log - Related Links

Times and Time Zones

All times are in EDT time to prevent confusion due to time zone crossing. See the SWA796 flight status page for this flight to view local times or setup timezone preferences in your user account.

Time Position Orientation Groundspeed Altitude Reporting Facility
EDT Latitude Longitude Course Direction KTS MPH feet Rate Location/Type
08:12AM 35.4039 -97.5919 61° Northeast 138 159 2,300  Level Fort Worth Center
08:13AM 35.4292 -97.5792 22° Northeast 171 197 3,800 2,640 Climbing Fort Worth Center
08:14AM 35.4644 -97.5131 57° Northeast 255 293 6,600 2,940 Climbing Fort Worth Center
08:16AM 35.5572 -97.3058 61° Northeast 323 372 13,800 3,060 Climbing Kansas City Center
08:17AM 35.6036 -97.1969 62° Northeast 350 403 17,000 3,060 Climbing Kansas City Center
08:18AM 35.6373 -97.0281 61° Northeast  Level FlightAware Approximate
08:18AM 35.6508 -97.0856 62° Northeast 362 417 20,000  Level Kansas City Center
08:19AM 35.7011 -96.9686 62° Northeast 379 436 22,200 2,160 Climbing Kansas City Center
08:20AM 35.7547 -96.8428 62° Northeast 406 467 24,400 1,980 Climbing Kansas City Center
08:21AM 35.8100 -96.7131 62° Northeast 423 487 26,300 1,860 Climbing Kansas City Center
08:22AM 35.8681 -96.5769 62° Northeast 442 509 28,200 1,680 Climbing Kansas City Center
08:24AM 35.9693 -96.4653 49° Northeast  Level FlightAware Approximate
08:24AM 36.0283 -96.3222 49° Northeast 453 521 31,400  Level Kansas City Center
08:25AM 36.1069 -96.1958 52° Northeast 460 529 33,300 1,680 Climbing Kansas City Center
08:26AM 36.1842 -96.0706 53° Northeast 458 527 34,900 1,500 Climbing Kansas City Center
08:27AM 36.2608 -95.9456 53° Northeast 454 522 36,400 1,260 Climbing Kansas City Center
08:28AM 36.3378 -95.8197 53° Northeast 455 524 37,500 1,140 Climbing Kansas City Center
08:29AM 36.4208 -95.6844 53° Northeast 454 522 38,800 720 Climbing Kansas City Center
08:30AM 36.4967 -95.5614 53° Northeast 452 520 39,000 60 Climbing Kansas City Center
08:31AM 36.5731 -95.4361 53° Northeast 454 522 39,000  Level Kansas City Center
08:32AM 36.6486 -95.3108 53° Northeast 454 522 39,000  Level Kansas City Center
08:33AM 36.7242 -95.1850 53° Northeast 452 520 39,000  Level Kansas City Center
08:34AM 36.7997 -95.0589 53° Northeast 452 520 39,000  Level Kansas City Center
08:35AM 36.8756 -94.9331 53° Northeast 451 519 39,000  Level Kansas City Center
08:36AM 36.9511 -94.8078 53° Northeast 450 518 39,000  Level Kansas City Center
08:37AM 37.0256 -94.6806 54° Northeast 451 519 39,000  Level Kansas City Center
08:38AM 37.1003 -94.5556 53° Northeast 449 517 39,000  Level Kansas City Center
08:39AM 37.1747 -94.4278 54° Northeast 451 519 39,000  Level Kansas City Center
08:41AM 37.2503 -94.3022 53° Northeast 450 518 39,000  Level Kansas City Center
08:42AM 37.3250 -94.1753 53° Northeast 451 519 39,000  Level Kansas City Center
08:43AM 37.4017 -94.0375 55° Northeast 447 514 39,000  Level Kansas City Center
08:44AM 37.4758 -93.9103 54° Northeast 449 517 39,000  Level Kansas City Center
08:45AM 37.5497 -93.7817 54° Northeast 449 517 39,000  Level Kansas City Center
08:46AM 37.6236 -93.6531 54° Northeast 451 519 39,000  Level Kansas City Center
08:47AM 37.6992 -93.5244 53° Northeast 453 521 39,000  Level Kansas City Center
08:48AM 37.7731 -93.3942 54° Northeast 453 521 39,000  Level Kansas City Center
08:49AM 37.8631 -93.2375 54° Northeast 456 525 39,000  Level Kansas City Center
08:50AM 37.9367 -93.1064 55° Northeast 454 522 39,000  Level Kansas City Center
08:51AM 38.0114 -92.9742 54° Northeast 457 526 39,000 -360 Level Kansas City Center
08:52AM 38.0853 -92.8425 54° Northeast 455 524 38,300 -840 Descending Kansas City Center
08:53AM 38.1500 -92.7275 54° Northeast 446 513 37,400 -960 Descending Kansas City Center
08:54AM 38.2267 -92.5881 55° Northeast 434 499 36,400 -1,080 Descending Kansas City Center
08:55AM 38.2978 -92.4622 54° Northeast 432 497 35,300 -1,680 Descending Kansas City Center
08:56AM 38.3664 -92.3369 55° Northeast 427 491 33,100 -2,280 Descending Kansas City Center
08:57AM 38.4331 -92.2175 55° Northeast 414 476 30,700 -2,340 Descending Kansas City Center
08:58AM 38.4925 -92.1044 56° Northeast 390 449 28,400 -2,160 Descending Kansas City Center
08:59AM 38.5511 -91.9992 55° Northeast 369 425 26,300 -1,980 Descending Kansas City Center
09:00AM 38.6058 -91.9006 55° Northeast 348 400 24,400 -1,920 Descending Kansas City Center
09:01AM 38.6583 -91.8042 55° Northeast 334 384 22,500 -1,920 Descending Kansas City Center
09:02AM 38.6922 -91.7019 67° East 327 376 20,600 -1,920 Descending Kansas City Center
09:03AM 38.6928 -91.5931 90° East 313 360 18,600 -1,920 Descending Kansas City Center
09:04AM 38.6939 -91.4869 89° East 304 350 16,700 -1,920 Descending Kansas City Center
09:05AM 38.6933 -91.3769 90° East 303 349 14,800 -1,920 Descending Kansas City Center
09:06AM 38.6939 -91.2725 90° East 304 350 12,900 -1,860 Descending Kansas City Center
09:07AM 38.6936 -91.1692 90° East 297 342 11,100 -1,380 Descending Kansas City Center
09:08AM 38.7092 -91.0733 78° East 285 328 10,100 -1,080 Descending Kansas City Center
09:09AM 38.7450 -90.9922 60° Northeast 265 305 8,900 -1,200 Descending Kansas City Center
09:10AM 38.8261 -90.9375 28° Northeast 288 331 7,700 -960 Descending Kansas City Center
09:11AM 38.8972 -90.8983 23° Northeast 282 325 7,000 -660 Descending Kansas City Center
09:12AM 38.9553 -90.8697 21° North 236 272 6,400 -960 Descending Kansas City Center
09:13AM 38.9617 -90.8067 83° East 194 223 5,100 -720 Descending Kansas City Center
09:14AM 38.9422 -90.7503 114° Southeast 176 203 5,000 -60 Descending Kansas City Center
09:15AM 38.9153 -90.7003 125° Southeast 171 197 5,000  Level Kansas City Center
09:16AM 38.8892 -90.6472 122° Southeast 174 200 5,000 -60 Level Kansas City Center
09:17AM 38.8642 -90.5950 122° Southeast 173 199 4,900 -540 Descending Kansas City Center
09:18AM 38.8378 -90.5417 122° Southeast 175 201 3,900 -1,020 Descending Kansas City Center
09:19AM 38.8128 -90.4906 122° Southeast 173 199 2,900 -960 Descending Kansas City Center
09:20AM 38.7903 -90.4453 123° Southeast 163 188 2,000 -900 Descending Kansas City Center
09:21AM 38.7669 -90.3967 122° Southeast 144 166 1,100 -780 Descending Kansas City Center
09:22AM 38.7508 -90.3633 122° Southeast 139 160 500 -600 Descending Kansas City Center